Time;durP1;ratioP1;P1;durP2;ratioP2;P2;SDS_P1;SDS_P2;PMS_P1;PMS_P2;Temp;Humidity;BMP_temperature;BMP_pressure;BME280_temperature;BME280_humidity;BME280_pressure;Samples;Min_cycle;Max_cycle;Signal;HPM_P1;HPM_P2
2023/05/01 00:00:06;;;;;;;2.97;1.80;;;15.20;99.90;;;;;;5115324;28;20324;-60
2023/05/01 00:02:32;;;;;;;2.67;1.92;;;15.20;99.90;;;;;;5115193;28;20172;-59
2023/05/01 00:04:58;;;;;;;2.88;1.85;;;15.20;99.90;;;;;;5115018;28;20638;-59
2023/05/01 00:07:24;;;;;;;3.05;2.25;;;15.20;99.90;;;;;;5114947;28;20540;-60
2023/05/01 00:09:50;;;;;;;2.05;1.60;;;15.10;99.90;;;;;;5115341;28;20215;-59
2023/05/01 00:12:16;;;;;;;3.33;1.90;;;15.10;99.90;;;;;;5115086;28;20169;-60
2023/05/01 00:14:42;;;;;;;1.88;1.75;;;15.10;99.90;;;;;;5114997;28;20204;-60
2023/05/01 00:17:08;;;;;;;3.70;1.77;;;15.10;99.90;;;;;;5114890;28;20638;-59
2023/05/01 00:19:33;;;;;;;1.88;1.67;;;15.10;99.90;;;;;;5114833;28;20173;-59
2023/05/01 00:21:59;;;;;;;2.42;1.70;;;15.10;99.90;;;;;;5114833;28;20199;-59
2023/05/01 00:24:25;;;;;;;2.90;1.77;;;15.10;99.90;;;;;;5115157;28;20177;-59
2023/05/01 00:26:50;;;;;;;2.63;1.90;;;15.10;99.90;;;;;;5114900;28;20189;-59
2023/05/01 00:29:16;;;;;;;2.55;1.67;;;15.00;99.90;;;;;;5114802;28;20173;-59
2023/05/01 00:31:42;;;;;;;3.00;1.77;;;15.00;99.90;;;;;;5114871;28;20617;-59
2023/05/01 00:34:10;;;;;;;2.25;1.70;;;15.10;99.90;;;;;;5114439;28;20181;-59
2023/05/01 00:36:36;;;;;;;3.42;1.67;;;15.00;99.90;;;;;;5114507;28;20170;-59
2023/05/01 00:39:02;;;;;;;2.55;2.10;;;14.90;99.90;;;;;;5114686;28;20218;-59
2023/05/01 00:41:28;;;;;;;2.53;1.92;;;14.90;99.90;;;;;;5114492;28;20177;-60
2023/05/01 00:43:54;;;;;;;2.22;1.80;;;14.90;99.90;;;;;;5096217;28;20180;-59
2023/05/01 00:46:20;;;;;;;2.08;1.88;;;14.90;99.90;;;;;;5114338;28;20177;-60
2023/05/01 00:48:46;;;;;;;3.30;1.98;;;14.80;99.90;;;;;;5113943;28;20289;-60
2023/05/01 00:51:12;;;;;;;3.65;2.25;;;14.90;99.90;;;;;;5114380;28;20248;-59
2023/05/01 00:53:40;;;;;;;2.95;2.13;;;14.90;99.90;;;;;;5113938;28;20338;-59
2023/05/01 00:56:07;;;;;;;3.30;2.08;;;14.90;99.90;;;;;;5114325;28;20174;-59
2023/05/01 00:58:33;;;;;;;2.80;2.10;;;14.90;99.90;;;;;;5114319;28;20169;-59
2023/05/01 01:01:00;;;;;;;1.85;1.73;;;14.80;99.90;;;;;;5114166;28;20165;-59
2023/05/01 01:03:26;;;;;;;2.65;2.10;;;14.80;99.90;;;;;;5113997;28;20169;-59
2023/05/01 01:06:09;;;;;;;2.40;1.70;;;14.70;99.90;;;;;;5114090;28;20238;-60
2023/05/01 01:08:41;;;;;;;2.30;2.08;;;14.60;99.90;;;;;;5114130;28;20205;-59
2023/05/01 01:11:25;;;;;;;2.60;2.17;;;14.60;99.90;;;;;;5114001;28;20170;-59
2023/05/01 01:14:26;;;;;;;3.63;1.98;;;14.50;99.90;;;;;;5113837;28;20176;-60
2023/05/01 01:17:10;;;;;;;3.25;2.30;;;14.50;99.90;;;;;;5095776;28;20189;-59
2023/05/01 01:20:14;;;;;;;2.50;2.08;;;14.50;99.90;;;;;;5113867;28;20639;-59
2023/05/01 01:22:46;;;;;;;2.58;2.28;;;14.60;99.90;;;;;;5113833;28;20198;-60
2023/05/01 01:25:36;;;;;;;2.40;2.20;;;14.50;99.90;;;;;;5114098;28;20170;-60
2023/05/01 01:28:17;;;;;;;2.97;2.30;;;14.50;99.90;;;;;;5113635;28;20207;-59
2023/05/01 01:30:46;;;;;;;2.50;2.30;;;14.40;99.90;;;;;;5113702;28;20171;-59
2023/05/01 01:33:11;;;;;;;3.67;2.28;;;14.40;99.90;;;;;;5113993;28;20168;-59
2023/05/01 01:35:41;;;;;;;4.95;2.55;;;14.40;99.90;;;;;;5113783;28;20173;-60
2023/05/01 01:38:21;;;;;;;2.53;2.30;;;14.30;99.90;;;;;;5113749;28;20188;-60
2023/05/01 01:40:55;;;;;;;3.17;2.53;;;14.40;99.90;;;;;;5113623;28;20238;-59
2023/05/01 01:43:23;;;;;;;3.05;2.60;;;14.40;99.90;;;;;;5113808;28;20164;-59
2023/05/01 01:45:53;;;;;;;2.65;2.45;;;14.40;99.90;;;;;;5113348;28;20172;-59
2023/05/01 01:48:26;;;;;;;2.50;2.30;;;14.40;99.90;;;;;;5113670;28;20201;-59
2023/05/01 01:50:54;;;;;;;2.92;2.63;;;14.40;99.90;;;;;;5113948;28;20188;-59
2023/05/01 01:53:21;;;;;;;2.85;2.60;;;14.50;99.90;;;;;;5113463;28;20173;-59
2023/05/01 01:55:48;;;;;;;3.03;2.40;;;14.40;99.90;;;;;;5113417;28;20170;-59
2023/05/01 01:58:15;;;;;;;2.58;2.38;;;14.40;99.90;;;;;;5114015;28;20528;-59
2023/05/01 02:00:44;;;;;;;3.90;2.47;;;14.40;99.90;;;;;;5113425;28;20176;-57
2023/05/01 02:03:14;;;;;;;5.03;2.90;;;14.40;99.90;;;;;;5095220;28;20567;-61
2023/05/01 02:05:42;;;;;;;3.05;2.80;;;14.30;99.90;;;;;;5116982;28;20200;-60
2023/05/01 02:08:10;;;;;;;3.55;2.85;;;14.30;99.90;;;;;;5117307;28;20200;-59
2023/05/01 02:10:37;;;;;;;3.38;2.85;;;14.30;99.90;;;;;;5117624;28;20169;-59
2023/05/01 02:13:04;;;;;;;4.55;2.65;;;14.30;99.90;;;;;;5117473;28;20187;-59
2023/05/01 02:15:31;;;;;;;3.28;2.80;;;14.30;99.90;;;;;;5117357;28;20169;-60
2023/05/01 02:18:00;;;;;;;3.42;3.05;;;14.30;99.90;;;;;;5117361;28;20272;-60
2023/05/01 02:20:27;;;;;;;3.35;3.05;;;14.30;99.90;;;;;;5117435;28;20176;-59
2023/05/01 02:22:53;;;;;;;4.22;3.25;;;14.30;99.90;;;;;;5116993;28;20178;-60
2023/05/01 02:25:19;;;;;;;3.20;2.90;;;14.20;99.90;;;;;;5116983;28;20528;-59
2023/05/01 02:28:00;;;;;;;3.53;2.78;;;14.20;99.90;;;;;;5117159;28;20205;-59
2023/05/01 02:30:26;;;;;;;4.00;2.90;;;14.20;99.90;;;;;;5117160;28;20173;-59
2023/05/01 02:32:52;;;;;;;3.17;2.75;;;14.20;99.90;;;;;;5116988;28;20578;-59
2023/05/01 02:35:17;;;;;;;4.88;3.00;;;14.30;99.90;;;;;;5116811;28;20181;-60
2023/05/01 02:37:46;;;;;;;4.20;2.53;;;14.30;99.90;;;;;;5116852;28;20524;-60
2023/05/01 02:40:15;;;;;;;4.78;2.80;;;14.30;99.90;;;;;;5116854;28;20776;-59
2023/05/01 02:42:46;;;;;;;3.42;2.70;;;14.30;99.90;;;;;;5116900;28;20649;-59
2023/05/01 02:45:19;;;;;;;3.63;2.80;;;14.30;99.90;;;;;;5116795;28;20172;-59
2023/05/01 02:47:49;;;;;;;2.85;2.65;;;14.20;99.90;;;;;;5116683;28;20200;-59
2023/05/01 02:50:15;;;;;;;2.97;2.53;;;14.30;99.90;;;;;;5116672;28;20221;-59
2023/05/01 02:52:42;;;;;;;3.35;2.65;;;14.30;99.90;;;;;;5116733;28;20231;-60
2023/05/01 02:55:08;;;;;;;5.35;2.60;;;14.20;99.90;;;;;;5116711;28;20218;-59
2023/05/01 02:57:34;;;;;;;4.30;2.85;;;14.20;99.90;;;;;;5116687;28;20635;-60
2023/05/01 03:00:00;;;;;;;2.92;2.63;;;14.20;99.90;;;;;;5116399;28;20173;-59
2023/05/01 03:02:26;;;;;;;3.17;2.58;;;14.20;99.90;;;;;;5116337;28;20180;-59
2023/05/01 03:04:52;;;;;;;4.18;2.50;;;14.20;99.90;;;;;;5116555;28;20566;-59
2023/05/01 03:07:17;;;;;;;2.67;2.33;;;14.10;99.90;;;;;;5116256;28;20758;-59
2023/05/01 03:09:43;;;;;;;3.28;2.60;;;14.10;99.90;;;;;;5116411;28;20264;-59
2023/05/01 03:12:09;;;;;;;2.75;2.53;;;14.10;99.90;;;;;;5098250;28;20658;-59
2023/05/01 03:14:34;;;;;;;3.90;2.95;;;14.00;99.90;;;;;;5115607;28;20654;-59
2023/05/01 03:17:00;;;;;;;3.50;2.53;;;14.00;99.90;;;;;;5116000;28;20181;-59
2023/05/01 03:19:26;;;;;;;4.90;2.80;;;14.00;99.90;;;;;;5116150;28;20169;-60
2023/05/01 03:21:51;;;;;;;5.72;2.90;;;13.90;99.90;;;;;;5115933;28;20188;-59
2023/05/01 03:24:17;;;;;;;3.70;3.40;;;13.80;99.90;;;;;;5116328;28;20188;-59
2023/05/01 03:26:43;;;;;;;3.65;3.10;;;13.80;99.90;;;;;;5115980;28;20628;-59
2023/05/01 03:29:09;;;;;;;3.33;3.03;;;13.90;99.90;;;;;;5115940;28;20541;-59
2023/05/01 03:31:34;;;;;;;3.67;3.20;;;13.80;99.90;;;;;;5115867;28;20173;-59
2023/05/01 03:34:00;;;;;;;5.72;3.05;;;13.80;99.90;;;;;;5116004;28;20169;-59
2023/05/01 03:36:27;;;;;;;3.92;3.42;;;13.80;99.90;;;;;;5115918;28;20234;-58
2023/05/01 03:38:52;;;;;;;3.72;3.15;;;13.80;99.90;;;;;;5115815;28;20237;-60
2023/05/01 03:41:18;;;;;;;4.25;3.30;;;13.80;99.90;;;;;;5115723;28;20204;-58
2023/05/01 03:43:44;;;;;;;3.85;3.22;;;13.70;99.90;;;;;;5097401;28;20169;-59
2023/05/01 03:46:10;;;;;;;5.13;3.40;;;13.80;99.90;;;;;;5115544;28;20176;-59
2023/05/01 03:48:35;;;;;;;3.50;3.20;;;13.80;99.90;;;;;;5115450;28;20205;-59
2023/05/01 03:51:01;;;;;;;4.38;3.40;;;13.80;99.90;;;;;;5115479;28;20208;-59
2023/05/01 03:53:27;;;;;;;3.85;3.15;;;13.70;99.90;;;;;;5115674;28;20177;-59
2023/05/01 03:55:52;;;;;;;4.30;3.63;;;13.40;99.90;;;;;;5115394;28;20639;-60
2023/05/01 03:58:18;;;;;;;3.38;3.05;;;13.40;99.90;;;;;;5115419;28;20704;-60
2023/05/01 04:00:44;;;;;;;4.55;3.50;;;13.60;99.90;;;;;;5115230;28;20632;-59
2023/05/01 04:03:09;;;;;;;5.28;3.70;;;13.60;99.90;;;;;;5115443;28;20238;-59
2023/05/01 04:05:35;;;;;;;5.72;4.18;;;13.50;99.90;;;;;;5115344;28;20185;-59
2023/05/01 04:08:01;;;;;;;3.95;3.33;;;13.60;99.90;;;;;;5114983;28;20197;-59
2023/05/01 04:10:26;;;;;;;4.82;3.90;;;13.60;99.90;;;;;;5096951;28;20188;-59
2023/05/01 04:12:52;;;;;;;4.88;3.65;;;13.60;99.90;;;;;;5115231;28;20689;-60
2023/05/01 04:15:18;;;;;;;4.75;3.70;;;13.50;99.90;;;;;;5115007;28;20181;-60
2023/05/01 04:17:43;;;;;;;4.93;3.58;;;13.50;99.90;;;;;;5115103;28;20180;-59
2023/05/01 04:20:09;;;;;;;4.20;3.80;;;13.50;99.90;;;;;;5115063;28;20173;-60
2023/05/01 04:22:36;;;;;;;5.95;4.28;;;13.50;99.90;;;;;;5115281;28;20616;-59
2023/05/01 04:25:02;;;;;;;4.50;4.10;;;13.50;99.90;;;;;;5115057;28;20165;-59
2023/05/01 04:27:28;;;;;;;4.30;3.67;;;13.50;99.90;;;;;;5113887;28;20205;-60
2023/05/01 04:29:54;;;;;;;4.65;3.65;;;13.40;99.90;;;;;;5114723;28;20173;-60
2023/05/01 04:32:19;;;;;;;4.95;3.72;;;13.50;99.90;;;;;;5114862;28;20520;-60
2023/05/01 04:34:45;;;;;;;4.18;3.65;;;13.50;99.90;;;;;;5114786;28;20653;-59
2023/05/01 04:37:11;;;;;;;4.30;3.78;;;13.50;99.90;;;;;;5114852;28;20174;-60
2023/05/01 04:39:37;;;;;;;4.38;3.60;;;13.50;99.90;;;;;;5114652;28;20181;-60
2023/05/01 04:42:03;;;;;;;4.22;3.83;;;13.40;99.90;;;;;;5114528;28;20543;-59
2023/05/01 04:44:29;;;;;;;3.78;3.47;;;13.50;99.90;;;;;;5114393;28;20196;-60
2023/05/01 04:46:55;;;;;;;5.47;3.95;;;13.50;99.90;;;;;;5114485;28;20173;-60
2023/05/01 04:49:21;;;;;;;4.22;3.67;;;13.50;99.90;;;;;;5114212;28;20225;-60
2023/05/01 04:51:47;;;;;;;4.90;3.85;;;13.50;99.90;;;;;;5114388;28;20181;-60
2023/05/01 04:54:13;;;;;;;5.35;3.70;;;13.50;99.90;;;;;;5096084;28;20177;-60
2023/05/01 04:56:38;;;;;;;4.55;3.92;;;13.40;99.90;;;;;;5114326;28;20169;-60
2023/05/01 04:59:04;;;;;;;4.93;3.88;;;13.30;99.90;;;;;;5114063;28;20640;-60
2023/05/01 05:01:30;;;;;;;5.18;4.07;;;13.40;99.90;;;;;;5096104;28;20268;-60
2023/05/01 05:03:55;;;;;;;5.38;3.97;;;13.40;99.90;;;;;;5114194;28;20222;-59
2023/05/01 05:06:21;;;;;;;4.47;3.72;;;13.40;99.90;;;;;;5114128;28;20590;-59
2023/05/01 05:08:50;;;;;;;6.65;4.07;;;13.40;99.90;;;;;;5113932;28;20734;-60
2023/05/01 05:11:19;;;;;;;4.05;3.33;;;13.40;99.90;;;;;;5113892;28;20646;-61
2023/05/01 05:13:45;;;;;;;5.25;3.90;;;13.40;99.90;;;;;;5113703;28;20623;-60
2023/05/01 05:16:11;;;;;;;6.07;3.50;;;13.50;99.90;;;;;;5114094;28;20176;-59
2023/05/01 05:18:40;;;;;;;4.80;3.60;;;13.40;99.90;;;;;;5114061;28;20184;-59
2023/05/01 05:21:06;;;;;;;6.20;3.90;;;13.50;99.90;;;;;;5113917;28;20256;-59
2023/05/01 05:23:32;;;;;;;4.13;3.40;;;13.60;99.90;;;;;;5113692;28;20191;-59
2023/05/01 05:26:01;;;;;;;4.88;3.55;;;13.60;99.90;;;;;;5113741;28;20165;-60
2023/05/01 05:28:27;;;;;;;3.67;3.38;;;13.60;99.90;;;;;;5113483;28;20242;-60
2023/05/01 05:30:54;;;;;;;4.35;3.85;;;13.50;99.90;;;;;;5113925;28;20172;-60
2023/05/01 05:33:20;;;;;;;3.70;3.40;;;13.60;99.90;;;;;;5113926;28;20249;-59
2023/05/01 05:35:45;;;;;;;4.28;3.72;;;13.50;99.90;;;;;;5113795;28;20205;-60
2023/05/01 05:38:12;;;;;;;4.30;3.90;;;13.60;99.90;;;;;;5113276;28;20189;-59
2023/05/01 05:40:38;;;;;;;4.95;3.88;;;13.60;99.90;;;;;;5113688;28;20177;-60
2023/05/01 05:43:03;;;;;;;4.30;3.63;;;13.70;99.90;;;;;;5113439;28;20177;-60
2023/05/01 05:45:33;;;;;;;3.95;3.65;;;13.70;99.90;;;;;;5113690;28;20162;-60
2023/05/01 05:47:58;;;;;;;4.00;3.22;;;13.70;99.90;;;;;;5112345;28;20197;-60
2023/05/01 05:50:24;;;;;;;4.82;3.70;;;13.80;99.90;;;;;;5112949;28;20583;-60
2023/05/01 05:52:50;;;;;;;4.30;3.70;;;13.70;99.90;;;;;;5113357;28;20193;-60
2023/05/01 05:55:16;;;;;;;3.97;3.45;;;13.70;99.90;;;;;;5113386;28;20717;-59
2023/05/01 05:57:41;;;;;;;4.97;3.50;;;13.70;99.90;;;;;;5113290;28;20222;-60
2023/05/01 06:00:09;;;;;;;4.25;3.22;;;13.80;99.90;;;;;;5113455;28;20173;-60
2023/05/01 06:02:35;;;;;;;4.65;3.85;;;13.80;99.90;;;;;;5113321;28;20177;-59
2023/05/01 06:05:01;;;;;;;3.60;3.30;;;13.80;99.90;;;;;;5108579;28;20185;-60
2023/05/01 06:07:27;;;;;;;4.43;3.75;;;13.90;99.90;;;;;;5106682;28;20215;-60
2023/05/01 06:09:53;;;;;;;5.65;3.90;;;13.90;99.90;;;;;;5107803;28;20189;-59
2023/05/01 06:12:19;;;;;;;4.28;3.90;;;13.90;99.90;;;;;;5104733;28;20213;-59
2023/05/01 06:14:45;;;;;;;5.88;3.83;;;14.00;99.90;;;;;;5108307;28;20674;-59
2023/05/01 06:17:10;;;;;;;4.93;3.78;;;14.10;99.90;;;;;;5102442;28;20578;-60
2023/05/01 06:19:36;;;;;;;4.20;3.55;;;14.10;99.90;;;;;;5108367;28;20578;-61
2023/05/01 06:22:02;;;;;;;6.20;3.97;;;14.10;99.90;;;;;;5107160;28;20520;-59
2023/05/01 06:24:28;;;;;;;4.25;3.85;;;14.20;99.90;;;;;;5110701;28;20169;-60
2023/05/01 06:26:53;;;;;;;5.72;4.55;;;14.30;99.90;;;;;;5109236;28;20184;-59
2023/05/01 06:29:19;;;;;;;5.10;4.55;;;14.30;99.90;;;;;;5112658;28;20205;-59
2023/05/01 06:31:45;;;;;;;7.32;4.15;;;14.30;99.90;;;;;;5112740;28;20214;-59
2023/05/01 06:34:11;;;;;;;5.90;4.82;;;14.30;99.90;;;;;;5112692;28;20178;-59
2023/05/01 06:36:37;;;;;;;4.60;4.18;;;14.40;99.90;;;;;;5112706;28;20181;-60
2023/05/01 06:39:03;;;;;;;6.53;4.70;;;14.40;99.90;;;;;;5112439;28;20178;-61
2023/05/01 06:41:29;;;;;;;6.10;4.60;;;14.50;99.90;;;;;;5112734;28;20256;-59
2023/05/01 06:43:54;;;;;;;5.03;4.53;;;14.60;99.90;;;;;;5112223;28;20185;-60
2023/05/01 06:46:20;;;;;;;5.43;4.30;;;14.70;99.90;;;;;;5094516;28;20176;-60
2023/05/01 06:48:46;;;;;;;6.55;5.00;;;14.70;99.90;;;;;;5112651;28;20319;-57
2023/05/01 06:51:14;;;;;;;5.40;4.90;;;14.80;99.90;;;;;;5115200;28;20219;-60
2023/05/01 06:53:40;;;;;;;5.60;4.30;;;15.00;99.90;;;;;;5116102;28;20738;-60
2023/05/01 06:56:07;;;;;;;5.53;4.13;;;15.00;99.90;;;;;;5116294;28;20177;-59
2023/05/01 06:58:32;;;;;;;4.82;4.35;;;15.20;99.90;;;;;;5116640;28;20219;-60
2023/05/01 07:00:58;;;;;;;5.93;4.53;;;15.40;99.90;;;;;;5116556;28;20173;-59
2023/05/01 07:03:26;;;;;;;6.00;4.20;;;15.60;99.90;;;;;;5116325;28;20643;-59
2023/05/01 07:05:52;;;;;;;5.28;4.57;;;15.70;99.90;;;;;;5116232;28;20169;-60
2023/05/01 07:08:18;;;;;;;5.40;4.47;;;15.90;99.90;;;;;;5115666;28;20609;-59
2023/05/01 07:10:44;;;;;;;5.20;4.70;;;15.90;99.90;;;;;;5115669;28;20222;-60
2023/05/01 07:13:09;;;;;;;5.10;4.70;;;15.90;99.90;;;;;;5116120;28;20200;-61
2023/05/01 07:15:36;;;;;;;5.53;5.03;;;16.00;99.90;;;;;;5116045;28;20528;-60
2023/05/01 07:18:04;;;;;;;6.65;5.97;;;16.00;99.90;;;;;;5115788;28;20204;-60
2023/05/01 07:20:31;;;;;;;7.95;6.65;;;16.00;99.90;;;;;;5114705;28;20222;-60
2023/05/01 07:22:56;;;;;;;8.45;7.68;;;16.00;99.90;;;;;;5115697;28;20635;-60
2023/05/01 07:25:23;;;;;;;8.30;7.50;;;16.00;99.90;;;;;;5116264;28;20180;-60
2023/05/01 07:27:49;;;;;;;9.40;8.40;;;16.00;99.90;;;;;;5116020;28;20224;-60
2023/05/01 07:30:15;;;;;;;10.23;9.23;;;16.00;99.90;;;;;;5115910;28;20169;-60
2023/05/01 07:32:41;;;;;;;10.57;9.57;;;15.90;99.90;;;;;;5115815;28;20627;-60
2023/05/01 07:35:07;;;;;;;10.10;9.20;;;15.90;99.90;;;;;;5115835;28;20616;-60
2023/05/01 07:37:32;;;;;;;11.30;10.20;;;16.00;99.90;;;;;;5115580;28;20201;-60
2023/05/01 07:39:58;;;;;;;12.48;11.30;;;15.90;99.90;;;;;;5115861;28;20236;-59
2023/05/01 07:42:28;;;;;;;13.13;11.82;;;15.90;99.90;;;;;;5097241;28;20173;-60
2023/05/01 07:44:54;;;;;;;13.27;11.98;;;15.90;99.90;;;;;;5115742;28;20664;-60
2023/05/01 07:47:19;;;;;;;15.23;13.68;;;15.90;99.90;;;;;;5115534;28;20174;-60
2023/05/01 07:49:45;;;;;;;17.27;15.57;;;15.90;99.90;;;;;;5115245;28;20221;-60
2023/05/01 07:52:11;;;;;;;18.88;16.88;;;15.90;99.90;;;;;;5115325;28;20173;-59
2023/05/01 07:54:36;;;;;;;20.20;17.75;;;16.00;99.90;;;;;;5115355;28;20200;-59
2023/05/01 07:57:04;;;;;;;20.75;18.55;;;16.10;99.90;;;;;;5115278;28;20193;-59
2023/05/01 07:59:30;;;;;;;23.92;18.92;;;15.90;99.90;;;;;;5115429;28;20642;-60
2023/05/01 08:01:56;;;;;;;23.98;20.40;;;15.90;99.90;;;;;;5115275;28;20265;-60
2023/05/01 08:04:21;;;;;;;21.38;19.08;;;16.00;99.90;;;;;;5115222;28;20192;-59
2023/05/01 08:06:50;;;;;;;23.33;19.35;;;15.90;99.90;;;;;;5115181;28;20170;-59
2023/05/01 08:09:16;;;;;;;21.27;19.08;;;15.90;99.90;;;;;;5115098;28;20772;-60
2023/05/01 08:11:42;;;;;;;20.48;18.27;;;15.80;99.90;;;;;;5115064;28;20166;-59
2023/05/01 08:14:08;;;;;;;21.85;19.55;;;15.90;99.90;;;;;;5115229;28;20299;-59
2023/05/01 08:16:36;;;;;;;22.08;19.67;;;15.90;99.90;;;;;;5115139;28;20165;-59
2023/05/01 08:19:02;;;;;;;23.23;20.35;;;15.80;99.90;;;;;;5115072;28;20177;-59
2023/05/01 08:21:28;;;;;;;22.02;19.75;;;15.70;99.90;;;;;;5114772;28;20631;-59
2023/05/01 08:23:55;;;;;;;24.55;22.05;;;15.70;99.90;;;;;;5115061;28;20180;-59
2023/05/01 08:26:21;;;;;;;23.52;21.02;;;15.80;99.90;;;;;;5114894;28;20620;-60
2023/05/01 08:28:47;;;;;;;27.35;23.33;;;15.80;99.90;;;;;;5114618;28;20230;-59
2023/05/01 08:31:13;;;;;;;22.90;20.48;;;15.80;99.90;;;;;;5114747;28;20222;-58
2023/05/01 08:33:40;;;;;;;25.33;22.58;;;15.90;99.90;;;;;;5114563;28;20185;-59
2023/05/01 08:36:08;;;;;;;27.10;22.23;;;15.90;99.90;;;;;;5114419;28;20631;-58
2023/05/01 08:38:35;;;;;;;29.23;23.52;;;16.00;99.90;;;;;;5114669;28;20169;-58
2023/05/01 08:41:02;;;;;;;26.42;23.25;;;15.90;99.90;;;;;;5114583;28;20264;-58
2023/05/01 08:43:30;;;;;;;26.48;23.67;;;15.90;99.90;;;;;;5114207;28;20272;-58
2023/05/01 08:45:59;;;;;;;26.02;23.33;;;16.00;99.90;;;;;;5114471;28;20162;-57
2023/05/01 08:48:27;;;;;;;25.58;22.83;;;15.90;99.90;;;;;;5114131;28;20201;-57
2023/05/01 08:50:58;;;;;;;25.85;23.13;;;15.90;99.90;;;;;;5114773;28;20704;-58
2023/05/01 08:53:24;;;;;;;26.25;23.58;;;15.90;99.90;;;;;;5114430;28;20169;-57
2023/05/01 08:55:51;;;;;;;29.02;23.60;;;15.90;99.90;;;;;;5114271;28;20177;-58
2023/05/01 08:58:19;;;;;;;28.50;25.40;;;15.90;99.90;;;;;;5096017;28;20169;-58
2023/05/01 09:00:45;;;;;;;27.73;24.55;;;16.00;99.90;;;;;;5114099;28;20318;-58
2023/05/01 09:03:14;;;;;;;29.10;24.52;;;16.10;99.90;;;;;;5113982;28;20536;-57
2023/05/01 09:05:40;;;;;;;27.70;23.80;;;16.10;99.90;;;;;;5114173;28;20233;-58
2023/05/01 09:08:06;;;;;;;27.48;24.55;;;16.10;99.90;;;;;;5113952;28;20291;-57
2023/05/01 09:10:32;;;;;;;26.15;22.83;;;16.00;99.90;;;;;;5114119;28;20173;-60
2023/05/01 09:13:05;;;;;;;28.40;24.02;;;16.10;99.90;;;;;;5113514;28;20184;-58
2023/05/01 09:15:32;;;;;;;27.23;24.25;;;16.10;99.90;;;;;;5113802;28;20205;-59
2023/05/01 09:18:00;;;;;;;28.25;24.15;;;16.00;99.90;;;;;;5113758;28;20184;-59
2023/05/01 09:20:27;;;;;;;27.25;24.33;;;16.10;99.90;;;;;;5113914;28;20577;-58
2023/05/01 09:22:56;;;;;;;26.50;23.00;;;16.10;99.90;;;;;;5113811;28;20189;-58
2023/05/01 09:25:21;;;;;;;25.23;22.45;;;16.10;99.90;;;;;;5113684;28;20265;-58
2023/05/01 09:27:47;;;;;;;27.10;22.92;;;16.20;99.90;;;;;;5113707;28;20288;-58
2023/05/01 09:30:34;;;;;;;25.00;22.10;;;16.20;99.90;;;;;;5113488;28;20736;-58
2023/05/01 09:33:29;;;;;;;29.40;22.52;;;16.20;99.90;;;;;;5113751;28;20169;-58
2023/05/01 09:35:57;;;;;;;24.25;21.75;;;16.20;99.90;;;;;;5091981;28;20185;-57
2023/05/01 09:38:24;;;;;;;24.45;21.20;;;16.20;99.90;;;;;;5113593;28;20180;-58
2023/05/01 09:40:52;;;;;;;23.02;20.40;;;16.30;99.90;;;;;;5113403;28;20207;-59
2023/05/01 09:43:28;;;;;;;22.85;20.27;;;16.20;99.90;;;;;;5113773;28;20176;-58
2023/05/01 09:46:08;;;;;;;21.52;19.10;;;16.30;99.90;;;;;;5113609;28;20176;-59
2023/05/01 09:48:36;;;;;;;23.95;20.20;;;16.40;99.90;;;;;;5113152;28;20232;-58
2023/05/01 09:51:18;;;;;;;20.92;18.63;;;16.40;99.90;;;;;;5095534;28;20184;-59
2023/05/01 09:53:44;;;;;;;20.10;18.00;;;16.40;99.90;;;;;;5113516;28;20519;-59
2023/05/01 09:56:10;;;;;;;20.73;18.63;;;16.30;99.90;;;;;;5113368;28;20170;-60
2023/05/01 09:58:36;;;;;;;20.05;17.95;;;16.40;99.90;;;;;;5113538;28;20662;-59
2023/05/01 10:01:01;;;;;;;20.95;18.48;;;16.50;99.90;;;;;;5113403;28;20196;-59
2023/05/01 10:03:27;;;;;;;20.15;17.98;;;16.60;99.90;;;;;;5113293;28;20185;-59
2023/05/01 10:05:55;;;;;;;18.73;16.83;;;16.80;99.90;;;;;;5113250;28;20169;-60
2023/05/01 10:08:21;;;;;;;18.52;16.60;;;16.80;99.90;;;;;;5113473;28;20208;-59
2023/05/01 10:11:04;;;;;;;19.27;17.27;;;16.70;99.90;;;;;;5113478;28;20169;-59
2023/05/01 10:13:30;;;;;;;20.17;17.35;;;16.90;99.90;;;;;;5113353;28;20173;-59
2023/05/01 10:15:55;;;;;;;18.98;16.83;;;17.00;99.90;;;;;;5113228;28;20635;-59
2023/05/01 10:18:22;;;;;;;18.58;16.65;;;17.20;99.90;;;;;;5113145;28;20212;-59
2023/05/01 10:20:48;;;;;;;16.10;14.50;;;17.40;99.90;;;;;;5113317;28;20631;-59
2023/05/01 10:23:13;;;;;;;16.33;14.65;;;17.60;99.90;;;;;;5113304;28;20227;-58
2023/05/01 10:25:40;;;;;;;15.38;13.88;;;17.70;99.90;;;;;;5096755;28;20177;-58
2023/05/01 10:28:08;;;;;;;16.08;14.43;;;17.80;99.90;;;;;;5117097;28;20208;-58
2023/05/01 10:30:35;;;;;;;15.55;13.75;;;17.90;99.90;;;;;;5116946;28;20178;-58
2023/05/01 10:33:01;;;;;;;14.20;12.70;;;18.00;99.90;;;;;;5116815;28;20646;-58
2023/05/01 10:35:32;;;;;;;13.07;11.70;;;18.10;99.90;;;;;;5117138;28;20260;-58
2023/05/01 10:38:04;;;;;;;14.82;12.52;;;18.20;99.90;;;;;;5117006;28;20527;-58
2023/05/01 10:40:39;;;;;;;12.57;11.27;;;18.10;99.90;;;;;;5116939;28;20166;-58
2023/05/01 10:43:27;;;;;;;12.70;11.48;;;18.30;99.90;;;;;;5116785;28;20203;-59
2023/05/01 10:46:17;;;;;;;13.00;11.32;;;18.50;99.90;;;;;;5117014;28;20562;-58
2023/05/01 10:48:46;;;;;;;13.40;12.07;;;18.60;99.90;;;;;;5116424;28;20216;-58
2023/05/01 10:51:16;;;;;;;12.35;11.00;;;18.30;99.90;;;;;;5116818;28;20169;-58
2023/05/01 10:53:44;;;;;;;12.30;10.90;;;18.50;99.90;;;;;;5116500;28;20181;-58
2023/05/01 10:56:31;;;;;;;11.32;10.20;;;18.60;99.90;;;;;;5116796;28;20531;-58
2023/05/01 10:59:03;;;;;;;10.85;9.75;;;18.70;99.90;;;;;;5116696;28;20179;-58
2023/05/01 11:01:38;;;;;;;11.77;10.60;;;18.80;99.90;;;;;;5116642;28;20595;-58
2023/05/01 11:04:06;;;;;;;11.77;10.68;;;18.70;99.90;;;;;;5116264;28;20200;-59
2023/05/01 11:06:32;;;;;;;12.52;11.32;;;19.10;99.90;;;;;;5116558;28;20169;-60
2023/05/01 11:08:59;;;;;;;12.73;11.43;;;19.30;99.90;;;;;;5116398;28;20209;-61
2023/05/01 11:11:25;;;;;;;11.43;10.23;;;19.30;99.90;;;;;;5116170;28;20569;-58
2023/05/01 11:14:01;;;;;;;13.20;11.52;;;19.70;99.90;;;;;;5116217;28;20177;-59
2023/05/01 11:16:36;;;;;;;12.93;11.60;;;19.90;99.90;;;;;;5116188;28;20169;-59
2023/05/01 11:19:20;;;;;;;12.68;11.48;;;20.00;99.90;;;;;;5116334;28;20172;-59
2023/05/01 11:21:46;;;;;;;12.30;11.02;;;19.80;99.90;;;;;;5116157;28;20169;-58
2023/05/01 11:24:12;;;;;;;12.65;11.35;;;19.70;99.90;;;;;;5115880;28;20173;-58
2023/05/01 11:26:41;;;;;;;12.52;11.23;;;19.20;99.90;;;;;;5097593;28;20188;-58
2023/05/01 11:29:11;;;;;;;13.25;11.25;;;18.90;99.90;;;;;;5115723;28;20200;-59
2023/05/01 11:31:38;;;;;;;13.52;12.15;;;18.80;99.90;;;;;;5116049;28;20177;-58
2023/05/01 11:34:05;;;;;;;13.60;12.00;;;18.90;99.90;;;;;;5115901;28;20209;-59
2023/05/01 11:36:50;;;;;;;13.43;12.02;;;19.10;99.90;;;;;;5115455;28;20169;-58
2023/05/01 11:39:16;;;;;;;14.07;12.68;;;18.90;99.90;;;;;;5115633;28;20216;-59
2023/05/01 11:41:42;;;;;;;14.52;12.73;;;18.60;99.90;;;;;;5115578;28;20165;-59
2023/05/01 11:44:10;;;;;;;12.45;11.35;;;18.50;99.90;;;;;;5115630;28;20226;-58
2023/05/01 11:46:36;;;;;;;13.50;12.10;;;18.50;99.90;;;;;;5115851;28;20733;-59
2023/05/01 11:49:02;;;;;;;12.65;11.35;;;18.50;99.90;;;;;;5115306;28;20311;-59
2023/05/01 11:51:29;;;;;;;12.93;11.60;;;18.10;99.90;;;;;;5115618;28;20532;-59
2023/05/01 11:54:02;;;;;;;12.25;11.07;;;18.00;99.90;;;;;;5115464;28;20345;-59
2023/05/01 11:56:28;;;;;;;13.07;11.77;;;18.00;99.90;;;;;;5115500;28;20173;-60
2023/05/01 11:58:56;;;;;;;13.05;11.75;;;17.90;99.90;;;;;;5097249;28;20181;-58
2023/05/01 12:01:36;;;;;;;12.75;11.65;;;17.80;99.90;;;;;;5115436;28;20654;-58
2023/05/01 12:04:02;;;;;;;13.13;11.65;;;18.00;99.90;;;;;;5115334;28;20165;-58
2023/05/01 12:06:44;;;;;;;13.52;12.23;;;18.10;99.90;;;;;;5115630;28;20177;-58
2023/05/01 12:09:21;;;;;;;12.75;11.55;;;18.30;99.90;;;;;;5115297;28;20196;-59
2023/05/01 12:11:50;;;;;;;15.10;11.30;;;18.30;99.90;;;;;;5115371;28;20173;-59
2023/05/01 12:14:16;;;;;;;12.30;11.10;;;18.00;99.90;;;;;;5115115;28;20231;-59
2023/05/01 12:16:43;;;;;;;11.93;10.70;;;18.10;99.90;;;;;;5115038;28;20747;-59
2023/05/01 12:19:11;;;;;;;12.65;11.35;;;18.20;99.90;;;;;;5114777;28;20577;-59
2023/05/01 12:21:37;;;;;;;13.40;12.00;;;18.20;99.90;;;;;;5115096;28;20165;-58
2023/05/01 12:24:15;;;;;;;13.57;12.18;;;18.10;99.90;;;;;;5115147;28;20501;-60
2023/05/01 12:26:41;;;;;;;13.10;11.80;;;17.80;99.90;;;;;;5115577;28;20574;-59
2023/05/01 12:29:08;;;;;;;13.50;12.13;;;17.50;99.90;;;;;;5114732;28;20201;-59
2023/05/01 12:31:35;;;;;;;12.15;10.95;;;17.30;99.90;;;;;;5114690;28;20263;-60
2023/05/01 12:34:06;;;;;;;13.80;11.65;;;17.50;99.90;;;;;;5114639;28;20169;-58
2023/05/01 12:36:33;;;;;;;12.85;11.65;;;17.70;99.90;;;;;;5114729;28;20526;-59
2023/05/01 12:39:13;;;;;;;13.05;11.75;;;17.60;99.90;;;;;;5114473;28;20180;-59
2023/05/01 12:41:41;;;;;;;12.30;10.95;;;17.80;99.90;;;;;;5114631;28;20222;-59